sensor_id;sensor_type;location;lat;lon;timestamp;temperature;humidity
69387;SHT31;56575;48.942;8.404;2023-07-13T00:01:12;20.95;61.18
69387;SHT31;56575;48.942;8.404;2023-07-13T00:03:38;20.91;61.31
69387;SHT31;56575;48.942;8.404;2023-07-13T00:06:06;20.91;61.78
69387;SHT31;56575;48.942;8.404;2023-07-13T00:08:32;20.82;62.58
69387;SHT31;56575;48.942;8.404;2023-07-13T00:11:03;20.82;63.04
69387;SHT31;56575;48.942;8.404;2023-07-13T00:13:30;20.71;63.64
69387;SHT31;56575;48.942;8.404;2023-07-13T00:15:57;20.65;64.10
69387;SHT31;56575;48.942;8.404;2023-07-13T00:18:23;20.60;64.09
69387;SHT31;56575;48.942;8.404;2023-07-13T00:20:48;20.56;64.65
69387;SHT31;56575;48.942;8.404;2023-07-13T00:23:14;20.47;64.51
69387;SHT31;56575;48.942;8.404;2023-07-13T00:25:39;20.33;65.01
69387;SHT31;56575;48.942;8.404;2023-07-13T00:28:05;20.29;65.09
69387;SHT31;56575;48.942;8.404;2023-07-13T00:30:30;20.22;65.36
69387;SHT31;56575;48.942;8.404;2023-07-13T00:32:55;20.16;65.35
69387;SHT31;56575;48.942;8.404;2023-07-13T00:35:21;20.15;65.28
69387;SHT31;56575;48.942;8.404;2023-07-13T00:37:46;20.11;65.70
69387;SHT31;56575;48.942;8.404;2023-07-13T00:40:13;20.05;65.60
69387;SHT31;56575;48.942;8.404;2023-07-13T00:42:39;19.99;65.90
69387;SHT31;56575;48.942;8.404;2023-07-13T00:47:36;19.89;66.43
69387;SHT31;56575;48.942;8.404;2023-07-13T00:50:04;19.89;66.36
69387;SHT31;56575;48.942;8.404;2023-07-13T00:52:31;19.86;66.35
69387;SHT31;56575;48.942;8.404;2023-07-13T00:54:56;19.78;66.42
69387;SHT31;56575;48.942;8.404;2023-07-13T00:57:23;19.75;66.61
69387;SHT31;56575;48.942;8.404;2023-07-13T00:59:52;19.75;66.56
69387;SHT31;56575;48.942;8.404;2023-07-13T01:02:19;19.74;67.23
69387;SHT31;56575;48.942;8.404;2023-07-13T01:04:44;19.75;66.87
69387;SHT31;56575;48.942;8.404;2023-07-13T01:07:11;19.71;66.97
69387;SHT31;56575;48.942;8.404;2023-07-13T01:09:37;19.68;67.41
69387;SHT31;56575;48.942;8.404;2023-07-13T01:12:02;19.68;67.07
69387;SHT31;56575;48.942;8.404;2023-07-13T01:14:28;19.60;67.03
69387;SHT31;56575;48.942;8.404;2023-07-13T01:16:54;19.53;66.82
69387;SHT31;56575;48.942;8.404;2023-07-13T01:21:55;19.47;67.51
69387;SHT31;56575;48.942;8.404;2023-07-13T01:24:20;19.45;68.33
69387;SHT31;56575;48.942;8.404;2023-07-13T01:26:45;19.41;68.14
69387;SHT31;56575;48.942;8.404;2023-07-13T01:29:11;19.39;68.00
69387;SHT31;56575;48.942;8.404;2023-07-13T01:31:36;19.29;68.23
69387;SHT31;56575;48.942;8.404;2023-07-13T01:34:01;19.19;68.67
69387;SHT31;56575;48.942;8.404;2023-07-13T01:36:27;19.09;68.94
69387;SHT31;56575;48.942;8.404;2023-07-13T01:38:52;19.06;69.17
69387;SHT31;56575;48.942;8.404;2023-07-13T01:41:18;18.95;68.97
69387;SHT31;56575;48.942;8.404;2023-07-13T01:43:43;18.91;69.38
69387;SHT31;56575;48.942;8.404;2023-07-13T01:46:08;18.82;69.26
69387;SHT31;56575;48.942;8.404;2023-07-13T01:48:34;18.75;69.83
69387;SHT31;56575;48.942;8.404;2023-07-13T01:50:59;18.74;69.76
69387;SHT31;56575;48.942;8.404;2023-07-13T01:53:25;18.69;70.33
69387;SHT31;56575;48.942;8.404;2023-07-13T01:55:50;18.71;70.38
69387;SHT31;56575;48.942;8.404;2023-07-13T01:58:15;18.67;70.34
69387;SHT31;56575;48.942;8.404;2023-07-13T02:00:41;18.71;70.10
69387;SHT31;56575;48.942;8.404;2023-07-13T02:03:06;18.64;69.80
69387;SHT31;56575;48.942;8.404;2023-07-13T02:05:31;18.61;69.91
69387;SHT31;56575;48.942;8.404;2023-07-13T02:07:57;18.57;70.22
69387;SHT31;56575;48.942;8.404;2023-07-13T02:10:22;18.48;70.59
69387;SHT31;56575;48.942;8.404;2023-07-13T02:12:48;18.48;70.68
69387;SHT31;56575;48.942;8.404;2023-07-13T02:15:14;18.48;70.91
69387;SHT31;56575;48.942;8.404;2023-07-13T02:17:40;18.43;70.95
69387;SHT31;56575;48.942;8.404;2023-07-13T02:20:06;18.47;71.09
69387;SHT31;56575;48.942;8.404;2023-07-13T02:22:32;18.40;70.96
69387;SHT31;56575;48.942;8.404;2023-07-13T02:24:58;18.43;70.93
69387;SHT31;56575;48.942;8.404;2023-07-13T02:27:23;18.34;71.09
69387;SHT31;56575;48.942;8.404;2023-07-13T02:29:48;18.37;71.20
69387;SHT31;56575;48.942;8.404;2023-07-13T02:32:16;18.32;70.86
69387;SHT31;56575;48.942;8.404;2023-07-13T02:34:42;18.25;71.32
69387;SHT31;56575;48.942;8.404;2023-07-13T02:37:07;18.25;71.38
69387;SHT31;56575;48.942;8.404;2023-07-13T02:39:32;18.25;71.77
69387;SHT31;56575;48.942;8.404;2023-07-13T02:41:59;18.20;71.43
69387;SHT31;56575;48.942;8.404;2023-07-13T02:44:24;18.23;71.51
69387;SHT31;56575;48.942;8.404;2023-07-13T02:46:50;18.23;71.77
69387;SHT31;56575;48.942;8.404;2023-07-13T02:49:15;18.26;71.73
69387;SHT31;56575;48.942;8.404;2023-07-13T02:51:40;18.25;71.52
69387;SHT31;56575;48.942;8.404;2023-07-13T02:54:06;18.22;71.04
69387;SHT31;56575;48.942;8.404;2023-07-13T02:56:33;18.22;71.02
69387;SHT31;56575;48.942;8.404;2023-07-13T02:58:59;18.19;71.23
69387;SHT31;56575;48.942;8.404;2023-07-13T03:01:24;18.13;71.40
69387;SHT31;56575;48.942;8.404;2023-07-13T03:03:50;18.06;71.46
69387;SHT31;56575;48.942;8.404;2023-07-13T03:06:16;18.02;71.87
69387;SHT31;56575;48.942;8.404;2023-07-13T03:08:43;18.01;71.71
69387;SHT31;56575;48.942;8.404;2023-07-13T03:11:12;18.01;71.68
69387;SHT31;56575;48.942;8.404;2023-07-13T03:13:40;17.98;71.56
69387;SHT31;56575;48.942;8.404;2023-07-13T03:16:07;17.88;71.65
69387;SHT31;56575;48.942;8.404;2023-07-13T03:18:33;17.91;71.95
69387;SHT31;56575;48.942;8.404;2023-07-13T03:20:58;17.89;71.44
69387;SHT31;56575;48.942;8.404;2023-07-13T03:23:24;17.91;71.68
69387;SHT31;56575;48.942;8.404;2023-07-13T03:25:50;17.95;71.66
69387;SHT31;56575;48.942;8.404;2023-07-13T03:28:16;17.93;71.46
69387;SHT31;56575;48.942;8.404;2023-07-13T03:30:41;17.85;71.46
69387;SHT31;56575;48.942;8.404;2023-07-13T03:33:07;17.85;71.54
69387;SHT31;56575;48.942;8.404;2023-07-13T03:35:33;17.81;71.67
69387;SHT31;56575;48.942;8.404;2023-07-13T03:37:59;17.70;71.84
69387;SHT31;56575;48.942;8.404;2023-07-13T03:40:25;17.61;71.83
69387;SHT31;56575;48.942;8.404;2023-07-13T03:42:51;17.63;71.83
69387;SHT31;56575;48.942;8.404;2023-07-13T03:45:17;17.58;72.19
69387;SHT31;56575;48.942;8.404;2023-07-13T03:47:42;17.61;72.23
69387;SHT31;56575;48.942;8.404;2023-07-13T03:50:08;17.71;72.05
69387;SHT31;56575;48.942;8.404;2023-07-13T03:52:34;17.70;71.92
69387;SHT31;56575;48.942;8.404;2023-07-13T03:54:59;17.68;71.79
69387;SHT31;56575;48.942;8.404;2023-07-13T03:57:25;17.65;71.71
69387;SHT31;56575;48.942;8.404;2023-07-13T03:59:51;17.60;71.95
69387;SHT31;56575;48.942;8.404;2023-07-13T04:02:17;17.57;71.91
69387;SHT31;56575;48.942;8.404;2023-07-13T04:04:42;17.55;71.76
69387;SHT31;56575;48.942;8.404;2023-07-13T04:07:08;17.53;72.04
69387;SHT31;56575;48.942;8.404;2023-07-13T04:09:34;17.53;72.05
69387;SHT31;56575;48.942;8.404;2023-07-13T04:12:00;17.54;72.28
69387;SHT31;56575;48.942;8.404;2023-07-13T04:14:25;17.50;72.27
69387;SHT31;56575;48.942;8.404;2023-07-13T04:16:51;17.50;72.23
69387;SHT31;56575;48.942;8.404;2023-07-13T04:19:16;17.48;71.92
69387;SHT31;56575;48.942;8.404;2023-07-13T04:21:41;17.51;72.22
69387;SHT31;56575;48.942;8.404;2023-07-13T04:24:07;17.58;72.08
69387;SHT31;56575;48.942;8.404;2023-07-13T04:26:33;17.73;72.04
69387;SHT31;56575;48.942;8.404;2023-07-13T04:29:01;17.82;71.55
69387;SHT31;56575;48.942;8.404;2023-07-13T04:31:28;17.89;71.31
69387;SHT31;56575;48.942;8.404;2023-07-13T04:33:53;17.96;71.45
69387;SHT31;56575;48.942;8.404;2023-07-13T04:36:19;18.05;71.28
69387;SHT31;56575;48.942;8.404;2023-07-13T04:38:44;18.12;70.96
69387;SHT31;56575;48.942;8.404;2023-07-13T04:41:09;18.10;70.17
69387;SHT31;56575;48.942;8.404;2023-07-13T04:43:36;18.13;70.13
69387;SHT31;56575;48.942;8.404;2023-07-13T04:46:12;18.06;69.76
69387;SHT31;56575;48.942;8.404;2023-07-13T04:48:37;18.05;70.09
69387;SHT31;56575;48.942;8.404;2023-07-13T04:51:04;18.14;70.05
69387;SHT31;56575;48.942;8.404;2023-07-13T04:53:30;18.28;69.96
69387;SHT31;56575;48.942;8.404;2023-07-13T04:55:56;18.33;70.06
69387;SHT31;56575;48.942;8.404;2023-07-13T04:58:22;18.46;69.86
69387;SHT31;56575;48.942;8.404;2023-07-13T05:00:48;18.53;69.77
69387;SHT31;56575;48.942;8.404;2023-07-13T05:03:13;18.64;69.13
69387;SHT31;56575;48.942;8.404;2023-07-13T05:05:38;18.67;68.40
69387;SHT31;56575;48.942;8.404;2023-07-13T05:08:04;18.63;68.69
69387;SHT31;56575;48.942;8.404;2023-07-13T05:10:29;18.58;68.20
69387;SHT31;56575;48.942;8.404;2023-07-13T05:12:55;18.63;68.03
69387;SHT31;56575;48.942;8.404;2023-07-13T05:15:21;18.65;67.75
69387;SHT31;56575;48.942;8.404;2023-07-13T05:17:48;18.68;67.93
69387;SHT31;56575;48.942;8.404;2023-07-13T05:20:14;18.69;68.10
69387;SHT31;56575;48.942;8.404;2023-07-13T05:22:39;18.74;68.25
69387;SHT31;56575;48.942;8.404;2023-07-13T05:25:06;18.82;68.09
69387;SHT31;56575;48.942;8.404;2023-07-13T05:27:32;18.89;67.76
69387;SHT31;56575;48.942;8.404;2023-07-13T05:29:57;18.94;67.67
69387;SHT31;56575;48.942;8.404;2023-07-13T05:32:22;18.85;67.40
69387;SHT31;56575;48.942;8.404;2023-07-13T05:34:48;18.75;67.75
69387;SHT31;56575;48.942;8.404;2023-07-13T05:37:13;18.71;68.31
69387;SHT31;56575;48.942;8.404;2023-07-13T05:39:39;18.69;68.42
69387;SHT31;56575;48.942;8.404;2023-07-13T05:42:05;18.67;68.66
69387;SHT31;56575;48.942;8.404;2023-07-13T05:44:30;18.65;68.71
69387;SHT31;56575;48.942;8.404;2023-07-13T05:46:56;18.67;68.60
69387;SHT31;56575;48.942;8.404;2023-07-13T05:49:23;18.67;68.67
69387;SHT31;56575;48.942;8.404;2023-07-13T05:51:48;18.68;68.74
69387;SHT31;56575;48.942;8.404;2023-07-13T05:54:14;18.76;69.09
69387;SHT31;56575;48.942;8.404;2023-07-13T05:56:39;18.87;68.67
69387;SHT31;56575;48.942;8.404;2023-07-13T05:59:05;18.92;68.52
69387;SHT31;56575;48.942;8.404;2023-07-13T06:01:31;18.99;68.54
69387;SHT31;56575;48.942;8.404;2023-07-13T06:03:57;19.09;68.34
69387;SHT31;56575;48.942;8.404;2023-07-13T06:06:22;19.15;67.99
69387;SHT31;56575;48.942;8.404;2023-07-13T06:08:48;19.13;68.17
69387;SHT31;56575;48.942;8.404;2023-07-13T06:11:19;19.18;68.17
69387;SHT31;56575;48.942;8.404;2023-07-13T06:13:45;19.23;68.05
69387;SHT31;56575;48.942;8.404;2023-07-13T06:16:10;19.27;68.15
69387;SHT31;56575;48.942;8.404;2023-07-13T06:18:37;19.30;68.83
69387;SHT31;56575;48.942;8.404;2023-07-13T06:21:13;19.37;69.09
69387;SHT31;56575;48.942;8.404;2023-07-13T06:23:39;19.41;68.73
69387;SHT31;56575;48.942;8.404;2023-07-13T06:26:06;19.33;69.15
69387;SHT31;56575;48.942;8.404;2023-07-13T06:28:32;19.29;68.71
69387;SHT31;56575;48.942;8.404;2023-07-13T06:30:58;19.27;67.89
69387;SHT31;56575;48.942;8.404;2023-07-13T06:33:24;19.27;68.18
69387;SHT31;56575;48.942;8.404;2023-07-13T06:35:50;19.30;68.40
69387;SHT31;56575;48.942;8.404;2023-07-13T06:38:15;19.29;67.32
69387;SHT31;56575;48.942;8.404;2023-07-13T06:40:41;19.33;67.13
69387;SHT31;56575;48.942;8.404;2023-07-13T06:43:06;19.43;67.37
69387;SHT31;56575;48.942;8.404;2023-07-13T06:45:35;19.47;64.90
69387;SHT31;56575;48.942;8.404;2023-07-13T06:48:01;19.47;65.75
69387;SHT31;56575;48.942;8.404;2023-07-13T06:50:26;19.56;65.46
69387;SHT31;56575;48.942;8.404;2023-07-13T06:52:52;19.57;64.82
69387;SHT31;56575;48.942;8.404;2023-07-13T06:55:18;19.75;65.08
69387;SHT31;56575;48.942;8.404;2023-07-13T06:57:43;19.88;64.63
69387;SHT31;56575;48.942;8.404;2023-07-13T07:00:09;19.85;62.84
69387;SHT31;56575;48.942;8.404;2023-07-13T07:02:35;19.95;63.39
69387;SHT31;56575;48.942;8.404;2023-07-13T07:05:00;20.01;63.59
69387;SHT31;56575;48.942;8.404;2023-07-13T07:07:26;20.09;63.68
69387;SHT31;56575;48.942;8.404;2023-07-13T07:09:51;20.15;62.17
69387;SHT31;56575;48.942;8.404;2023-07-13T07:12:17;20.16;61.65
69387;SHT31;56575;48.942;8.404;2023-07-13T07:14:42;20.26;61.43
69387;SHT31;56575;48.942;8.404;2023-07-13T07:17:07;20.37;61.92
69387;SHT31;56575;48.942;8.404;2023-07-13T07:19:33;20.43;61.16
69387;SHT31;56575;48.942;8.404;2023-07-13T07:21:59;20.47;61.04
69387;SHT31;56575;48.942;8.404;2023-07-13T07:24:25;20.54;61.09
69387;SHT31;56575;48.942;8.404;2023-07-13T07:26:50;20.70;61.39
69387;SHT31;56575;48.942;8.404;2023-07-13T07:29:15;20.88;60.95
69387;SHT31;56575;48.942;8.404;2023-07-13T07:31:41;20.88;60.89
69387;SHT31;56575;48.942;8.404;2023-07-13T07:34:06;20.99;60.62
69387;SHT31;56575;48.942;8.404;2023-07-13T07:36:32;21.06;60.66
69387;SHT31;56575;48.942;8.404;2023-07-13T07:38:57;21.09;59.76
69387;SHT31;56575;48.942;8.404;2023-07-13T07:41:22;21.06;59.84
69387;SHT31;56575;48.942;8.404;2023-07-13T07:43:48;21.06;59.84
69387;SHT31;56575;48.942;8.404;2023-07-13T07:46:13;21.13;59.07
69387;SHT31;56575;48.942;8.404;2023-07-13T07:48:39;21.30;59.45
69387;SHT31;56575;48.942;8.404;2023-07-13T07:51:04;21.40;59.01
69387;SHT31;56575;48.942;8.404;2023-07-13T07:53:30;21.42;58.65
69387;SHT31;56575;48.942;8.404;2023-07-13T07:55:55;21.49;58.09
69387;SHT31;56575;48.942;8.404;2023-07-13T07:58:20;21.60;58.49
69387;SHT31;56575;48.942;8.404;2023-07-13T08:00:46;21.61;58.37
69387;SHT31;56575;48.942;8.404;2023-07-13T08:03:12;21.71;56.86
69387;SHT31;56575;48.942;8.404;2023-07-13T08:05:37;21.75;55.83
69387;SHT31;56575;48.942;8.404;2023-07-13T08:08:03;21.81;55.52
69387;SHT31;56575;48.942;8.404;2023-07-13T08:10:29;21.88;55.79
69387;SHT31;56575;48.942;8.404;2023-07-13T08:12:54;22.01;55.18
69387;SHT31;56575;48.942;8.404;2023-07-13T08:15:20;22.12;51.74
69387;SHT31;56575;48.942;8.404;2023-07-13T08:17:47;22.12;51.24
69387;SHT31;56575;48.942;8.404;2023-07-13T08:20:13;22.33;51.96
69387;SHT31;56575;48.942;8.404;2023-07-13T08:22:38;22.29;51.63
69387;SHT31;56575;48.942;8.404;2023-07-13T08:25:04;22.46;49.95
69387;SHT31;56575;48.942;8.404;2023-07-13T08:27:29;22.65;49.79
69387;SHT31;56575;48.942;8.404;2023-07-13T08:29:55;22.87;49.45
69387;SHT31;56575;48.942;8.404;2023-07-13T08:32:22;23.08;49.17
69387;SHT31;56575;48.942;8.404;2023-07-13T08:34:48;22.97;45.48
69387;SHT31;56575;48.942;8.404;2023-07-13T08:37:14;23.38;47.35
69387;SHT31;56575;48.942;8.404;2023-07-13T08:39:39;23.60;47.26
69387;SHT31;56575;48.942;8.404;2023-07-13T08:42:11;23.71;46.28
69387;SHT31;56575;48.942;8.404;2023-07-13T08:47:35;23.98;43.41
69387;SHT31;56575;48.942;8.404;2023-07-13T08:50:02;23.88;43.24
69387;SHT31;56575;48.942;8.404;2023-07-13T08:52:35;24.12;43.22
69387;SHT31;56575;48.942;8.404;2023-07-13T08:55:11;24.52;42.14
69387;SHT31;56575;48.942;8.404;2023-07-13T08:57:39;24.72;42.40
69387;SHT31;56575;48.942;8.404;2023-07-13T09:00:10;24.80;42.03
69387;SHT31;56575;48.942;8.404;2023-07-13T09:02:46;25.17;41.53
69387;SHT31;56575;48.942;8.404;2023-07-13T09:05:36;25.18;41.04
69387;SHT31;56575;48.942;8.404;2023-07-13T09:14:06;25.41;41.39
69387;SHT31;56575;48.942;8.404;2023-07-13T09:16:39;25.12;41.30
69387;SHT31;56575;48.942;8.404;2023-07-13T09:19:07;25.29;40.46
69387;SHT31;56575;48.942;8.404;2023-07-13T09:21:39;25.18;42.86
69387;SHT31;56575;48.942;8.404;2023-07-13T09:24:37;25.45;41.87
69387;SHT31;56575;48.942;8.404;2023-07-13T09:27:09;25.50;39.89
69387;SHT31;56575;48.942;8.404;2023-07-13T09:29:41;26.13;40.07
69387;SHT31;56575;48.942;8.404;2023-07-13T09:32:10;25.87;39.86
69387;SHT31;56575;48.942;8.404;2023-07-13T09:34:38;25.87;40.00
69387;SHT31;56575;48.942;8.404;2023-07-13T09:37:03;26.21;39.46
69387;SHT31;56575;48.942;8.404;2023-07-13T09:39:33;25.74;39.13
69387;SHT31;56575;48.942;8.404;2023-07-13T09:42:17;26.45;39.40
69387;SHT31;56575;48.942;8.404;2023-07-13T09:44:58;26.05;38.71
69387;SHT31;56575;48.942;8.404;2023-07-13T09:47:29;26.15;38.86
69387;SHT31;56575;48.942;8.404;2023-07-13T09:50:01;26.68;38.26
69387;SHT31;56575;48.942;8.404;2023-07-13T09:52:28;27.00;37.80
69387;SHT31;56575;48.942;8.404;2023-07-13T09:55:04;26.84;37.83
69387;SHT31;56575;48.942;8.404;2023-07-13T09:57:30;26.80;37.23
69387;SHT31;56575;48.942;8.404;2023-07-13T09:59:56;27.01;37.56
69387;SHT31;56575;48.942;8.404;2023-07-13T10:04:57;26.01;37.22
69387;SHT31;56575;48.942;8.404;2023-07-13T10:07:23;26.04;38.12
69387;SHT31;56575;48.942;8.404;2023-07-13T10:09:57;25.74;38.42
69387;SHT31;56575;48.942;8.404;2023-07-13T10:12:23;26.09;38.87
69387;SHT31;56575;48.942;8.404;2023-07-13T10:14:54;26.83;37.65
69387;SHT31;56575;48.942;8.404;2023-07-13T10:17:26;26.66;36.95
69387;SHT31;56575;48.942;8.404;2023-07-13T10:20:02;26.49;37.38
69387;SHT31;56575;48.942;8.404;2023-07-13T10:23:02;27.28;36.81
69387;SHT31;56575;48.942;8.404;2023-07-13T10:25:37;27.70;36.28
69387;SHT31;56575;48.942;8.404;2023-07-13T10:28:11;27.35;36.41
69387;SHT31;56575;48.942;8.404;2023-07-13T10:30:41;27.90;36.36
69387;SHT31;56575;48.942;8.404;2023-07-13T10:33:12;27.76;36.35
69387;SHT31;56575;48.942;8.404;2023-07-13T10:35:40;27.94;35.67
69387;SHT31;56575;48.942;8.404;2023-07-13T10:38:11;28.41;35.48
69387;SHT31;56575;48.942;8.404;2023-07-13T10:40:48;28.35;34.98
69387;SHT31;56575;48.942;8.404;2023-07-13T10:43:23;28.68;34.04
69387;SHT31;56575;48.942;8.404;2023-07-13T10:45:52;28.51;35.04
69387;SHT31;56575;48.942;8.404;2023-07-13T10:48:21;28.90;34.62
69387;SHT31;56575;48.942;8.404;2023-07-13T10:50:49;28.27;34.26
69387;SHT31;56575;48.942;8.404;2023-07-13T10:53:22;29.00;35.10
69387;SHT31;56575;48.942;8.404;2023-07-13T10:58:24;29.49;33.24
69387;SHT31;56575;48.942;8.404;2023-07-13T11:03:33;29.72;31.33
69387;SHT31;56575;48.942;8.404;2023-07-13T11:06:16;29.85;30.91
69387;SHT31;56575;48.942;8.404;2023-07-13T11:11:34;29.96;30.77
69387;SHT31;56575;48.942;8.404;2023-07-13T11:14:02;28.21;33.72
69387;SHT31;56575;48.942;8.404;2023-07-13T11:16:43;27.74;33.90
69387;SHT31;56575;48.942;8.404;2023-07-13T11:24:57;27.58;35.58
69387;SHT31;56575;48.942;8.404;2023-07-13T11:27:44;27.14;36.40
69387;SHT31;56575;48.942;8.404;2023-07-13T11:33:16;28.87;34.12
69387;SHT31;56575;48.942;8.404;2023-07-13T11:35:57;27.93;35.01
69387;SHT31;56575;48.942;8.404;2023-07-13T11:38:43;27.17;36.01
69387;SHT31;56575;48.942;8.404;2023-07-13T11:41:21;26.79;36.80
69387;SHT31;56575;48.942;8.404;2023-07-13T11:43:53;27.11;36.81
69387;SHT31;56575;48.942;8.404;2023-07-13T11:46:25;27.34;37.49
69387;SHT31;56575;48.942;8.404;2023-07-13T11:48:52;27.18;37.84
69387;SHT31;56575;48.942;8.404;2023-07-13T11:51:29;26.90;37.42
69387;SHT31;56575;48.942;8.404;2023-07-13T11:54:10;26.53;38.52
69387;SHT31;56575;48.942;8.404;2023-07-13T11:56:40;26.79;36.90
69387;SHT31;56575;48.942;8.404;2023-07-13T11:59:07;27.98;35.14
69387;SHT31;56575;48.942;8.404;2023-07-13T12:01:35;28.28;35.38
69387;SHT31;56575;48.942;8.404;2023-07-13T12:04:04;28.07;34.32
69387;SHT31;56575;48.942;8.404;2023-07-13T12:06:33;28.68;34.66
69387;SHT31;56575;48.942;8.404;2023-07-13T12:09:03;29.13;32.56
69387;SHT31;56575;48.942;8.404;2023-07-13T12:11:30;28.25;33.56
69387;SHT31;56575;48.942;8.404;2023-07-13T12:13:56;28.56;33.95
69387;SHT31;56575;48.942;8.404;2023-07-13T12:16:32;28.37;33.65
69387;SHT31;56575;48.942;8.404;2023-07-13T12:19:00;28.27;34.66
69387;SHT31;56575;48.942;8.404;2023-07-13T12:21:32;28.13;34.80
69387;SHT31;56575;48.942;8.404;2023-07-13T12:23:58;28.29;35.07
69387;SHT31;56575;48.942;8.404;2023-07-13T12:26:24;28.45;34.86
69387;SHT31;56575;48.942;8.404;2023-07-13T12:28:53;29.03;33.40
69387;SHT31;56575;48.942;8.404;2023-07-13T12:31:37;28.68;33.55
69387;SHT31;56575;48.942;8.404;2023-07-13T12:34:11;28.76;33.95
69387;SHT31;56575;48.942;8.404;2023-07-13T12:36:47;27.52;34.60
69387;SHT31;56575;48.942;8.404;2023-07-13T12:39:26;27.89;33.81
69387;SHT31;56575;48.942;8.404;2023-07-13T12:41:53;29.03;33.15
69387;SHT31;56575;48.942;8.404;2023-07-13T12:44:27;28.34;32.03
69387;SHT31;56575;48.942;8.404;2023-07-13T12:46:56;28.06;32.90
69387;SHT31;56575;48.942;8.404;2023-07-13T12:49:29;28.40;32.94
69387;SHT31;56575;48.942;8.404;2023-07-13T12:51:58;28.55;31.84
69387;SHT31;56575;48.942;8.404;2023-07-13T12:54:24;29.00;31.35
69387;SHT31;56575;48.942;8.404;2023-07-13T12:56:51;28.32;32.68
69387;SHT31;56575;48.942;8.404;2023-07-13T12:59:20;27.98;32.82
69387;SHT31;56575;48.942;8.404;2023-07-13T13:01:47;27.92;33.69
69387;SHT31;56575;48.942;8.404;2023-07-13T13:04:14;27.45;34.50
69387;SHT31;56575;48.942;8.404;2023-07-13T13:06:40;27.94;34.03
69387;SHT31;56575;48.942;8.404;2023-07-13T13:09:12;27.58;34.13
69387;SHT31;56575;48.942;8.404;2023-07-13T13:11:39;28.27;33.74
69387;SHT31;56575;48.942;8.404;2023-07-13T13:14:05;28.55;36.03
69387;SHT31;56575;48.942;8.404;2023-07-13T13:16:33;27.80;33.18
69387;SHT31;56575;48.942;8.404;2023-07-13T13:19:19;28.10;33.04
69387;SHT31;56575;48.942;8.404;2023-07-13T13:21:46;28.20;32.83
69387;SHT31;56575;48.942;8.404;2023-07-13T13:24:13;28.55;31.85
69387;SHT31;56575;48.942;8.404;2023-07-13T13:26:40;29.23;33.18
69387;SHT31;56575;48.942;8.404;2023-07-13T13:29:22;28.80;31.25
69387;SHT31;56575;48.942;8.404;2023-07-13T13:31:50;29.42;32.88
69387;SHT31;56575;48.942;8.404;2023-07-13T13:34:17;29.52;31.53
69387;SHT31;56575;48.942;8.404;2023-07-13T13:36:44;29.45;31.15
69387;SHT31;56575;48.942;8.404;2023-07-13T13:39:24;29.00;32.17
69387;SHT31;56575;48.942;8.404;2023-07-13T13:41:52;28.97;31.94
69387;SHT31;56575;48.942;8.404;2023-07-13T13:44:19;29.45;33.29
69387;SHT31;56575;48.942;8.404;2023-07-13T13:46:47;29.38;31.30
69387;SHT31;56575;48.942;8.404;2023-07-13T13:49:15;29.11;31.40
69387;SHT31;56575;48.942;8.404;2023-07-13T13:51:42;28.76;32.21
69387;SHT31;56575;48.942;8.404;2023-07-13T13:54:15;29.25;34.90
69387;SHT31;56575;48.942;8.404;2023-07-13T13:56:45;28.89;32.51
69387;SHT31;56575;48.942;8.404;2023-07-13T13:59:12;28.65;32.14
69387;SHT31;56575;48.942;8.404;2023-07-13T14:01:38;28.08;32.70
69387;SHT31;56575;48.942;8.404;2023-07-13T14:04:05;28.08;33.17
69387;SHT31;56575;48.942;8.404;2023-07-13T14:06:32;28.10;33.14
69387;SHT31;56575;48.942;8.404;2023-07-13T14:08:58;28.61;32.90
69387;SHT31;56575;48.942;8.404;2023-07-13T14:11:24;28.48;33.26
69387;SHT31;56575;48.942;8.404;2023-07-13T14:13:55;28.65;36.44
69387;SHT31;56575;48.942;8.404;2023-07-13T14:16:23;28.66;33.34
69387;SHT31;56575;48.942;8.404;2023-07-13T14:18:53;28.65;32.54
69387;SHT31;56575;48.942;8.404;2023-07-13T14:21:20;28.62;32.77
69387;SHT31;56575;48.942;8.404;2023-07-13T14:23:47;28.80;33.55
69387;SHT31;56575;48.942;8.404;2023-07-13T14:26:15;28.86;32.93
69387;SHT31;56575;48.942;8.404;2023-07-13T14:28:43;29.31;33.65
69387;SHT31;56575;48.942;8.404;2023-07-13T14:31:10;29.21;31.81
69387;SHT31;56575;48.942;8.404;2023-07-13T14:33:35;29.08;32.99
69387;SHT31;56575;48.942;8.404;2023-07-13T14:36:02;29.30;33.03
69387;SHT31;56575;48.942;8.404;2023-07-13T14:38:28;29.28;31.90
69387;SHT31;56575;48.942;8.404;2023-07-13T14:40:53;29.41;31.99
69387;SHT31;56575;48.942;8.404;2023-07-13T14:43:18;29.59;31.67
69387;SHT31;56575;48.942;8.404;2023-07-13T14:45:46;29.41;31.75
69387;SHT31;56575;48.942;8.404;2023-07-13T14:48:18;29.04;31.41
69387;SHT31;56575;48.942;8.404;2023-07-13T14:50:45;29.07;31.68
69387;SHT31;56575;48.942;8.404;2023-07-13T14:53:12;28.95;32.62
69387;SHT31;56575;48.942;8.404;2023-07-13T14:55:38;28.51;32.61
69387;SHT31;56575;48.942;8.404;2023-07-13T14:58:03;28.38;32.36
69387;SHT31;56575;48.942;8.404;2023-07-13T15:00:29;28.24;33.38
69387;SHT31;56575;48.942;8.404;2023-07-13T15:02:57;28.66;33.16
69387;SHT31;56575;48.942;8.404;2023-07-13T15:05:26;28.87;32.47
69387;SHT31;56575;48.942;8.404;2023-07-13T15:07:57;28.93;32.30
69387;SHT31;56575;48.942;8.404;2023-07-13T15:10:29;29.00;32.97
69387;SHT31;56575;48.942;8.404;2023-07-13T15:13:12;29.30;33.30
69387;SHT31;56575;48.942;8.404;2023-07-13T15:15:40;29.45;32.30
69387;SHT31;56575;48.942;8.404;2023-07-13T15:18:11;29.52;33.34
69387;SHT31;56575;48.942;8.404;2023-07-13T15:20:37;29.52;32.98
69387;SHT31;56575;48.942;8.404;2023-07-13T15:23:02;29.52;33.13
69387;SHT31;56575;48.942;8.404;2023-07-13T15:25:30;29.13;32.78
69387;SHT31;56575;48.942;8.404;2023-07-13T15:27:57;29.28;33.26
69387;SHT31;56575;48.942;8.404;2023-07-13T15:30:25;29.34;33.13
69387;SHT31;56575;48.942;8.404;2023-07-13T15:32:52;29.00;32.18
69387;SHT31;56575;48.942;8.404;2023-07-13T15:35:19;29.17;33.04
69387;SHT31;56575;48.942;8.404;2023-07-13T15:37:45;29.27;33.42
69387;SHT31;56575;48.942;8.404;2023-07-13T15:40:12;29.00;32.57
69387;SHT31;56575;48.942;8.404;2023-07-13T15:42:39;28.84;33.06
69387;SHT31;56575;48.942;8.404;2023-07-13T15:47:40;29.21;35.89
69387;SHT31;56575;48.942;8.404;2023-07-13T15:50:12;29.10;32.61
69387;SHT31;56575;48.942;8.404;2023-07-13T15:52:38;29.24;33.24
69387;SHT31;56575;48.942;8.404;2023-07-13T15:55:03;29.15;32.56
69387;SHT31;56575;48.942;8.404;2023-07-13T15:57:30;28.75;32.65
69387;SHT31;56575;48.942;8.404;2023-07-13T15:59:55;28.84;32.55
69387;SHT31;56575;48.942;8.404;2023-07-13T16:02:21;28.84;32.74
69387;SHT31;56575;48.942;8.404;2023-07-13T16:04:47;28.76;32.69
69387;SHT31;56575;48.942;8.404;2023-07-13T16:07:16;28.87;33.03
69387;SHT31;56575;48.942;8.404;2023-07-13T16:09:43;28.83;33.15